Time;durP1;ratioP1;P1;durP2;ratioP2;P2;SDS_P1;SDS_P2;PMS_P1;PMS_P2;Temp;Humidity;BMP_temperature;BMP_pressure;BME280_temperature;BME280_humidity;BME280_pressure;Samples;Min_cycle;Max_cycle;Signal;HPM_P1;HPM_P2
2022/02/12 00:01:29;;;;;;;4.00;1.98;;;;;;;;;;6227025;23;20020;-96
2022/02/12 00:03:58;;;;;;;2.10;1.92;;;;;;;;;;6229251;23;20000;-96
2022/02/12 00:06:32;;;;;;;3.95;1.92;;;;;;;;;;6231154;23;20008;-95
2022/02/12 00:09:00;;;;;;;3.25;1.45;;;;;;;;;;6233890;23;20017;-96
2022/02/12 00:11:53;;;;;;;2.15;1.40;;;;;;;;;;6230928;23;20402;-96
2022/02/12 00:14:27;;;;;;;1.75;1.25;;;;;;;;;;6230394;23;20443;-96
2022/02/12 00:16:57;;;;;;;2.08;1.88;;;;;;;;;;6229592;23;20005;-95
2022/02/12 00:19:25;;;;;;;5.00;2.25;;;;;;;;;;6240863;23;20035;-96
2022/02/12 00:21:53;;;;;;;18.02;2.85;;;;;;;;;;6253660;23;20024;-96
2022/02/12 00:24:27;;;;;;;5.35;1.98;;;;;;;;;;6263159;23;20000;-95
2022/02/12 00:26:54;;;;;;;9.85;2.40;;;;;;;;;;6264353;23;20087;-95
2022/02/12 00:29:26;;;;;;;6.78;3.30;;;;;;;;;;6265270;23;20060;-96
2022/02/12 00:32:35;;;;;;;3.47;1.55;;;;;;;;;;6265144;23;20011;-95
2022/02/12 00:35:33;;;;;;;2.85;2.45;;;;;;;;;;6241252;23;20012;-96
2022/02/12 00:38:36;;;;;;;1.35;1.17;;;;;;;;;;6265202;23;20000;-95
2022/02/12 00:41:13;;;;;;;11.13;2.33;;;;;;;;;;6215270;23;20056;-95
2022/02/12 00:43:55;;;;;;;2.95;1.45;;;;;;;;;;6266184;23;20367;-95
2022/02/12 00:46:45;;;;;;;2.90;2.03;;;;;;;;;;6192229;23;20004;-96
2022/02/12 00:49:36;;;;;;;4.47;2.42;;;;;;;;;;6265672;23;20008;-95
2022/02/12 00:52:53;;;;;;;4.38;2.55;;;;;;;;;;6267256;23;20012;-96
2022/02/12 00:55:41;;;;;;;3.33;2.42;;;;;;;;;;6265520;23;20008;-96
2022/02/12 00:58:34;;;;;;;3.45;1.75;;;;;;;;;;6214127;23;20004;-95
2022/02/12 01:01:54;;;;;;;8.60;2.20;;;;;;;;;;6175481;23;20017;-96
2022/02/12 01:05:11;;;;;;;5.65;2.53;;;;;;;;;;6061733;23;20007;-96
2022/02/12 01:07:57;;;;;;;3.78;1.27;;;;;;;;;;5981059;24;20024;-96
2022/02/12 01:11:07;;;;;;;1.83;1.33;;;;;;;;;;5985703;24;20012;-96
2022/02/12 01:13:54;;;;;;;3.78;1.58;;;;;;;;;;6004354;24;20008;-95
2022/02/12 01:16:23;;;;;;;3.15;2.00;;;;;;;;;;5995645;24;20077;-96
2022/02/12 01:18:55;;;;;;;5.88;2.42;;;;;;;;;;6001921;24;20032;-95
2022/02/12 01:21:51;;;;;;;4.72;1.90;;;;;;;;;;6001849;24;20027;-95
2022/02/12 01:28:23;;;;;;;1.45;1.35;;;2.50;76.70;;;;;;6003866;24;20040;-95
2022/02/12 01:31:20;;;;;;;3.05;1.50;;;;;;;;;;5922243;24;20013;-95
2022/02/12 01:33:48;;;;;;;1.55;1.33;;;;;;;;;;5973914;24;20020;-96
2022/02/12 01:36:51;;;;;;;1.17;0.98;;;;;;;;;;5969223;24;20044;-96
2022/02/12 01:40:00;;;;;;;8.48;1.67;;;;;;;;;;5974845;24;20009;-95
2022/02/12 01:42:41;;;;;;;4.30;2.00;;;;;;;;;;5951639;24;20107;-96
2022/02/12 01:45:44;;;;;;;3.22;1.35;;;;;;;;;;6055490;23;19991;-95
2022/02/12 01:51:25;;;;;;;3.60;2.42;;;;;;;;;;6063301;23;20038;-95
2022/02/12 01:54:32;;;;;;;1.67;1.27;;;;;;;;;;6039234;23;20018;-95
2022/02/12 01:57:34;;;;;;;5.78;1.42;;;;;;;;;;6071891;23;20010;-95
2022/02/12 02:04:03;;;;;;;2.83;1.42;;;;;;;;;;6005354;24;20047;-96
2022/02/12 02:16:58;;;;;;;1.70;1.27;;;;;;;;;;5950990;24;20038;-94
2022/02/12 02:20:34;;;;;;;3.00;2.10;;;;;;;;;;5961241;23;20021;-96
2022/02/12 02:26:56;;;;;;;3.22;1.73;;;;;;;;;;5960134;24;20051;-96
2022/02/12 02:30:11;;;;;;;20.40;2.58;;;;;;;;;;5843625;24;20051;-95
2022/02/12 02:36:39;;;;;;;6.53;2.35;;;;;;;;;;5767185;24;20051;-96
2022/02/12 03:26:57;;;;;;;1.18;0.92;;;;;;;;;;5141971;22;25564113;-96
2022/02/12 03:29:24;;;;;;;1.88;1.13;;;;;;;;;;6336975;22;19999;-96
2022/02/12 03:31:50;;;;;;;3.33;1.40;;;;;;;;;;6336970;22;20342;-96
2022/02/12 03:34:16;;;;;;;1.75;0.95;;;;;;;;;;6284958;22;20045;-96
2022/02/12 03:52:24;;;;;;;2.08;1.48;;;;;;;;;;6302053;22;20031;-96
2022/02/12 03:54:50;;;;;;;6.18;1.73;;;;;;;;;;6303646;22;20007;-94
2022/02/12 03:57:17;;;;;;;2.35;1.60;;;;;;;;;;6297660;22;20034;-96
2022/02/12 03:59:43;;;;;;;3.67;1.70;;;;;;;;;;6298088;22;20079;-95
2022/02/12 04:02:10;;;;;;;2.42;1.30;;;;;;;;;;6270595;22;20000;-95
2022/02/12 04:04:37;;;;;;;2.42;1.33;;;;;;;;;;6298961;22;20023;-95
2022/02/12 04:07:04;;;;;;;4.70;1.80;;;;;;;;;;6298765;22;20073;-96
2022/02/12 04:09:32;;;;;;;2.30;1.77;;;;;;;;;;6298369;22;20019;-95
2022/02/12 04:12:04;;;;;;;6.13;1.33;;;;;;;;;;6296369;22;20006;-96
2022/02/12 04:14:42;;;;;;;3.78;1.58;;;;;;;;;;6220947;22;20003;-96
2022/02/12 04:17:36;;;;;;;3.15;1.98;;;;;;;;;;6296799;22;19999;-95
2022/02/12 04:20:13;;;;;;;2.28;0.98;;;;;;;;;;6295361;22;20027;-96
2022/02/12 04:22:49;;;;;;;1.85;1.30;;;;;;;;;;6290218;22;20008;-95
2022/02/12 04:25:19;;;;;;;3.40;1.33;;;;;;;;;;6217539;22;20004;-96
2022/02/12 04:28:08;;;;;;;4.63;1.77;;;;;;;;;;6295282;22;20014;-96
2022/02/12 04:30:52;;;;;;;2.70;1.55;;;;;;;;;;6295629;22;20007;-96
2022/02/12 04:33:21;;;;;;;3.33;2.25;;;;;;;;;;6290397;22;20008;-95
2022/02/12 04:35:50;;;;;;;0.98;0.98;;;;;;;;;;6242804;22;20004;-96
2022/02/12 04:38:40;;;;;;;1.55;1.33;;;;;;;;;;6297019;22;20023;-96
2022/02/12 04:41:16;;;;;;;1.40;0.60;;;;;;;;;;6296102;22;20415;-95
2022/02/12 04:43:52;;;;;;;5.57;1.55;;;;;;;;;;6193312;22;20015;-94
2022/02/12 04:46:19;;;;;;;3.67;1.80;;;;;;;;;;6267333;22;20008;-95
2022/02/12 04:48:48;;;;;;;3.47;2.08;;;;;;;;;;6293240;22;20004;-95
2022/02/12 04:51:20;;;;;;;6.68;2.05;;;;;;;;;;6293757;22;21075;-95
2022/02/12 04:54:00;;;;;;;1.88;1.73;;;;;;;;;;6292037;22;20014;-95
2022/02/12 04:56:27;;;;;;;3.53;1.88;;;;;;;;;;6293026;22;20004;-95
2022/02/12 04:58:54;;;;;;;2.53;1.45;;;;;;;;;;6264375;22;20019;-96
2022/02/12 05:01:50;;;;;;;;;;;1.00;74.70;;;;;;6284408;22;20008;-95
2022/02/12 05:04:30;;;;;;;5.50;4.32;;;;;;;;;;6293861;22;19906;-96
2022/02/12 05:07:02;;;;;;;5.90;2.17;;;;;;;;;;6291423;22;20026;-95
2022/02/12 05:09:34;;;;;;;1.98;1.75;;;;;;;;;;6294267;22;20008;-95
2022/02/12 05:12:06;;;;;;;7.38;2.03;;;;;;;;;;6265174;22;20011;-95
2022/02/12 05:14:38;;;;;;;4.20;2.17;;;;;;;;;;6264215;22;20012;-96
2022/02/12 05:17:08;;;;;;;1.98;1.88;;;;;;;;;;6264510;22;20085;-96
2022/02/12 05:19:34;;;;;;;4.03;2.30;;;;;;;;;;6263709;22;20015;-96
2022/02/12 05:22:01;;;;;;;7.95;2.65;;;;;;;;;;6264210;22;20003;-95
2022/02/12 05:24:27;;;;;;;2.67;2.47;;;;;;;;;;6286870;22;20037;-96
2022/02/12 05:26:54;;;;;;;3.33;1.63;;;;;;;;;;6292400;22;20012;-96
2022/02/12 05:29:22;;;;;;;1.52;1.20;;;;;;;;;;6292782;22;20011;-96
2022/02/12 05:31:50;;;;;;;5.10;1.92;;;;;;;;;;6290503;22;20018;-96
2022/02/12 05:34:16;;;;;;;1.83;1.65;;;;;;;;;;6241720;22;20004;-95
2022/02/12 05:36:49;;;;;;;6.22;2.20;;;;;;;;;;6293704;22;20063;-95
2022/02/12 05:39:44;;;;;;;2.40;1.55;;;;;;;;;;6271585;22;20015;-96
2022/02/12 05:42:15;;;;;;;4.97;2.25;;;;;;;;;;6214442;22;20015;-95
2022/02/12 05:44:44;;;;;;;4.50;2.03;;;;;;;;;;6286130;22;20014;-95
2022/02/12 05:47:14;;;;;;;2.17;1.48;;;;;;;;;;6266121;22;19995;-96
2022/02/12 05:49:40;;;;;;;4.35;2.22;;;;;;;;;;6274490;22;20000;-96
2022/02/12 05:52:06;;;;;;;1.52;1.42;;;;;;;;;;6274830;22;20000;-96
2022/02/12 05:54:32;;;;;;;1.25;1.15;;;;;;;;;;6274885;22;20442;-96
2022/02/12 06:02:52;;;;;;;1.23;1.08;;;;;;;;;;6295083;22;20027;-96
2022/02/12 06:05:18;;;;;;;2.67;1.35;;;;;;;;;;6301945;22;20012;-96
2022/02/12 06:07:44;;;;;;;1.38;1.10;;;;;;;;;;6301873;22;20000;-96
2022/02/12 06:10:10;;;;;;;1.95;1.00;;;;;;;;;;6301574;22;20000;-96
2022/02/12 06:12:37;;;;;;;11.87;1.73;;;;;;;;;;6301770;22;19988;-96
2022/02/12 06:15:03;;;;;;;6.13;1.48;;;;;;;;;;6301634;22;20219;-96
2022/02/12 06:17:29;;;;;;;1.88;1.67;;;;;;;;;;6275279;22;19995;-96
2022/02/12 06:19:56;;;;;;;2.65;1.70;;;;;;;;;;6302185;22;19991;-96
2022/02/12 06:22:24;;;;;;;1.88;1.15;;;;;;;;;;6303513;22;19999;-95
2022/02/12 06:24:50;;;;;;;4.47;1.13;;;;;;;;;;6303262;22;20434;-96
2022/02/12 06:27:17;;;;;;;1.08;0.77;;;;;;;;;;6277806;22;19988;-96
2022/02/12 06:29:43;;;;;;;1.50;1.33;;;;;;;;;;6303919;22;19996;-96
2022/02/12 06:32:09;;;;;;;2.78;1.38;;;;;;;;;;6303916;22;20003;-95
2022/02/12 06:34:35;;;;;;;3.10;1.70;;;;;;;;;;6303024;22;20004;-95
2022/02/12 06:37:04;;;;;;;1.98;1.45;;;;;;;;;;6303395;22;19992;-96
2022/02/12 06:39:31;;;;;;;8.68;2.25;;;;;;;;;;6303050;22;20006;-96
2022/02/12 06:41:57;;;;;;;3.80;1.97;;;;;;;;;;6303720;22;20008;-96
2022/02/12 06:44:23;;;;;;;2.70;2.28;;;;;;;;;;6277393;22;20007;-95
2022/02/12 06:46:50;;;;;;;2.63;1.50;;;;;;;;;;6302532;22;20039;-96
2022/02/12 06:49:17;;;;;;;1.05;0.95;;;;;;;;;;6300849;22;20234;-96
2022/02/12 06:51:43;;;;;;;3.13;2.15;;;;;;;;;;6300382;22;20004;-95
2022/02/12 06:54:10;;;;;;;4.75;2.30;;;;;;;;;;6272035;22;20082;-96
2022/02/12 06:56:58;;;;;;;2.65;2.13;;;;;;;;;;6222569;22;20014;-96
2022/02/12 06:59:56;;;;;;;5.07;2.72;;;;;;;;;;6173820;23;20006;-95
2022/02/12 07:02:35;;;;;;;3.42;3.13;;;;;;;;;;6167057;23;20048;-95
2022/02/12 07:05:12;;;;;;;6.78;3.83;;;;;;;;;;6166936;23;20026;-96
2022/02/12 07:08:14;;;;;;;6.43;3.53;;;;;;;;;;6133705;23;20009;-95
2022/02/12 07:11:34;;;;;;;2.47;2.20;;;;;;;;;;6175089;23;20484;-95
2022/02/12 07:14:10;;;;;;;8.05;4.32;;;;;;;;;;6145500;23;20033;-95
2022/02/12 07:17:03;;;;;;;3.92;3.17;;;;;;;;;;6165643;23;20014;-96
2022/02/12 07:19:36;;;;;;;3.95;2.53;;;;;;;;;;6122769;23;20092;-95
2022/02/12 07:22:26;;;;;;;8.32;3.15;;;;;;;;;;6173237;23;20040;-96
2022/02/12 07:25:39;;;;;;;8.02;3.03;;;;;;;;;;6161503;23;20037;-96
2022/02/12 07:28:06;;;;;;;8.90;4.15;;;;;;;;;;6147075;23;20001;-96
2022/02/12 07:30:33;;;;;;;5.28;3.25;;;;;;;;;;6124576;23;20013;-95
2022/02/12 07:33:32;;;;;;;14.20;6.28;;;;;;;;;;6172241;23;20040;-95
2022/02/12 07:36:20;;;;;;;5.47;4.03;;;;;;;;;;6173995;23;20001;-95
2022/02/12 07:39:18;;;;;;;4.88;3.40;;;;;;;;;;6147720;23;20005;-96
2022/02/12 07:41:46;;;;;;;4.35;2.80;;;;;;;;;;6167927;23;20014;-96
2022/02/12 07:44:15;;;;;;;8.63;5.47;;;;;;;;;;6173169;23;20020;-96
2022/02/12 07:46:54;;;;;;;6.88;3.63;;;;;;;;;;6172277;23;20005;-96
2022/02/12 07:49:25;;;;;;;14.50;5.22;;;;;;;;;;6208306;23;20007;-96
2022/02/12 07:52:01;;;;;;;8.48;5.00;;;;;;;;;;6264808;22;20027;-96
2022/02/12 07:54:33;;;;;;;8.75;4.72;;;;;;;;;;6262811;23;20070;-95
2022/02/12 07:57:01;;;;;;;14.40;4.38;;;;;;;;;;6257597;22;20014;-95
2022/02/12 07:59:31;;;;;;;6.97;3.88;;;;;;;;;;6260401;22;20034;-96
2022/02/12 08:02:01;;;;;;;4.60;3.65;;;;;;;;;;6268969;22;20113;-96
2022/02/12 08:04:35;;;;;;;8.82;4.13;;;;;;;;;;6266777;22;20012;-96
2022/02/12 08:09:52;;;;;;;8.85;6.07;;;;;;;;;;6292569;22;20019;-95
2022/02/12 08:12:20;;;;;;;15.23;6.32;;;;;;;;;;6261093;22;20008;-95
2022/02/12 08:14:53;;;;;;;17.23;7.50;;;;;;;;;;6259204;22;20069;-96
2022/02/12 08:17:20;;;;;;;8.75;5.53;;;;;;;;;;6286576;22;20034;-94
2022/02/12 08:19:46;;;;;;;29.48;11.13;;;;;;;;;;6256003;22;20010;-96
2022/02/12 08:22:12;;;;;;;8.27;5.25;;;;;;;;;;6257163;22;20011;-96
2022/02/12 08:24:42;;;;;;;7.22;3.35;;;;;;;;;;6261020;22;20458;-94
2022/02/12 08:27:10;;;;;;;14.77;4.60;;;;;;;;;;6288744;22;20027;-95
2022/02/12 08:29:36;;;;;;;10.05;4.07;;;;;;;;;;6260581;22;20181;-96
2022/02/12 08:32:03;;;;;;;9.37;3.60;;;;;;;;;;6287270;22;20008;-95
2022/02/12 08:34:32;;;;;;;11.95;2.65;;;;;;;;;;6289343;22;20235;-96
2022/02/12 08:54:01;;;;;;;3.85;3.38;;;;;;;;;;6294490;22;20097;-95
2022/02/12 08:56:27;;;;;;;14.43;3.05;;;;;;;;;;6268256;22;20030;-95
2022/02/12 08:58:53;;;;;;;5.88;2.97;;;;;;;;;;6287402;22;20027;-96
2022/02/12 09:01:19;;;;;;;4.57;2.70;;;;;;;;;;6286550;22;20003;-95
2022/02/12 09:03:45;;;;;;;8.00;2.78;;;;;;;;;;6282933;22;20015;-96
2022/02/12 09:06:11;;;;;;;9.32;3.58;;;;;;;;;;6281097;22;20079;-95
2022/02/12 09:08:37;;;;;;;4.82;2.90;;;;;;;;;;6252248;22;20003;-95
2022/02/12 09:11:03;;;;;;;5.55;4.07;;;;;;;;;;6279388;22;20004;-94
2022/02/12 09:13:30;;;;;;;4.60;2.78;;;;;;;;;;6279059;22;20455;-95
2022/02/12 09:15:56;;;;;;;6.43;3.03;;;;;;;;;;6278704;22;20008;-95
2022/02/12 09:18:22;;;;;;;7.88;3.58;;;;;;;;;;6252070;22;20045;-95
2022/02/12 09:20:48;;;;;;;11.50;4.38;;;;;;;;;;6278688;22;20004;-96
2022/02/12 09:23:14;;;;;;;7.32;3.97;;;;;;;;;;6251664;22;21950;-95
2022/02/12 09:25:40;;;;;;;7.25;4.15;;;;;;;;;;6251974;22;20012;-95
2022/02/12 09:28:06;;;;;;;4.38;2.45;;;;;;;;;;6251935;22;20007;-94
2022/02/12 09:30:32;;;;;;;4.38;2.42;;;;;;;;;;6279017;22;20074;-94
2022/02/12 09:32:58;;;;;;;3.83;1.98;;;;;;;;;;6250670;22;20343;-94
2022/02/12 09:35:25;;;;;;;6.00;3.10;;;;;;;;;;6277241;22;19999;-95
2022/02/12 09:37:51;;;;;;;4.72;3.10;;;;;;;;;;6276539;22;20030;-93
2022/02/12 09:40:17;;;;;;;7.72;2.78;;;;;;;;;;6276264;22;20027;-94
2022/02/12 09:42:47;;;;;;;3.60;2.53;;;;;;;;;;6249912;22;20007;-95
2022/02/12 09:45:13;;;;;;;5.20;3.40;;;;;;;;;;6277043;22;20007;-94
2022/02/12 09:47:46;;;;;;;3.92;2.55;;;;;;;;;;6276700;22;20000;-93
2022/02/12 09:50:13;;;;;;;8.05;3.38;;;;;;;;;;6276425;22;20003;-96
2022/02/12 09:52:45;;;;;;;7.05;4.38;;;;;;;;;;6282280;22;20094;-96
2022/02/12 09:55:11;;;;;;;5.63;3.10;;;;;;;;;;6282408;22;19996;-96
2022/02/12 09:57:39;;;;;;;8.10;3.33;;;;;;;;;;6256190;22;20334;-96
2022/02/12 10:00:05;;;;;;;;;;;;;;;;;;6256758;22;20000;-96
2022/02/12 10:02:31;;;;;;;7.10;4.13;;;;;;;;;;6284109;22;20294;-96
2022/02/12 10:05:17;;;;;;;6.93;4.25;;;;;;;;;;6225792;22;20015;-94
2022/02/12 10:07:44;;;;;;;5.95;3.65;;;;;;;;;;6276493;22;20334;-94
2022/02/12 10:10:12;;;;;;;10.10;3.65;;;;;;;;;;6275910;22;20008;-93
2022/02/12 10:12:38;;;;;;;6.88;3.33;;;;;;;;;;6276655;22;20316;-95
2022/02/12 10:15:04;;;;;;;5.38;3.45;;;;;;;;;;6276049;22;20004;-95
2022/02/12 10:17:31;;;;;;;7.35;4.18;;;;;;;;;;6276378;22;20000;-95
2022/02/12 10:19:57;;;;;;;8.32;4.18;;;;;;;;;;6276486;22;20109;-93
2022/02/12 10:22:23;;;;;;;7.82;3.28;;;;;;;;;;6276851;22;20014;-94
2022/02/12 10:24:52;;;;;;;9.32;3.70;;;;;;;;;;6276722;22;20008;-95
2022/02/12 10:27:19;;;;;;;4.65;3.35;;;;;;;;;;6277604;22;20007;-95
2022/02/12 10:29:48;;;;;;;5.47;3.17;;;;;;;;;;6277803;22;20003;-96
2022/02/12 10:32:18;;;;;;;3.65;2.53;;;;;;;;;;6277419;22;20008;-96
2022/02/12 10:34:44;;;;;;;5.32;2.70;;;;;;;;;;6276825;22;20435;-94
2022/02/12 10:37:12;;;;;;;4.80;2.07;;;;;;;;;;6278088;22;20038;-95
2022/02/12 10:39:59;;;;;;;5.43;2.58;;;;;;;;;;6278574;22;20685;-95
2022/02/12 10:42:29;;;;;;;5.37;2.50;;;;;;;;;;6278121;22;20023;-95
2022/02/12 10:44:55;;;;;;;6.22;3.08;;;;;;;;;;6279525;22;20254;-95
2022/02/12 10:47:22;;;;;;;5.88;2.13;;;;;;;;;;6251821;22;20004;-94
2022/02/12 10:49:49;;;;;;;5.03;2.50;;;;;;;;;;6279665;22;20004;-95
2022/02/12 10:52:16;;;;;;;5.00;2.90;;;;;;;;;;6279220;22;20019;-94
2022/02/12 10:54:49;;;;;;;7.22;2.50;;;;;;;;;;6251936;22;20015;-94
2022/02/12 10:57:16;;;;;;;2.63;2.20;;;;;;;;;;6251857;22;19999;-95
2022/02/12 10:59:43;;;;;;;3.72;2.60;;;;;;;;;;6279484;22;20133;-94
2022/02/12 11:02:18;;;;;;;3.35;2.78;;;;;;;;;;6278837;22;20003;-96
2022/02/12 11:04:45;;;;;;;9.13;2.83;;;;;;;;;;6250350;22;20102;-95
2022/02/12 11:07:15;;;;;;;2.25;1.75;;;;;;;;;;6252742;22;20006;-95
2022/02/12 11:09:44;;;;;;;3.83;1.92;;;;;;;;;;6280641;22;20009;-95
2022/02/12 11:12:10;;;;;;;4.25;2.38;;;;;;;;;;6276916;22;20000;-96
2022/02/12 11:14:36;;;;;;;3.25;2.60;;;;;;;;;;6252612;22;20007;-96
2022/02/12 11:17:12;;;;;;;3.38;2.78;;;;;;;;;;6281197;22;20065;-95
2022/02/12 11:19:39;;;;;;;4.82;3.28;;;;;;;;;;6280437;22;20008;-95
2022/02/12 11:22:09;;;;;;;4.78;2.47;;;;;;;;;;6282015;22;20004;-95
2022/02/12 11:24:36;;;;;;;6.72;3.08;;;;;;;;;;6281774;22;20012;-94
2022/02/12 11:27:14;;;;;;;4.65;2.55;;;;;;;;;;6280767;22;20346;-95
2022/02/12 11:29:41;;;;;;;3.80;2.55;;;;;;;;;;6282163;22;20015;-94
2022/02/12 11:32:11;;;;;;;5.60;2.28;;;;;;;;;;6282027;22;20008;-94
2022/02/12 11:34:42;;;;;;;6.05;1.92;;;;;;;;;;6254540;22;20034;-95
2022/02/12 11:37:15;;;;;;;2.63;2.00;;;;;;;;;;6254693;22;20004;-95
2022/02/12 11:39:41;;;;;;;6.03;2.80;;;;;;;;;;6282108;22;20343;-94
2022/02/12 11:42:12;;;;;;;3.63;2.15;;;;;;;;;;6253282;22;20004;-95
2022/02/12 11:44:43;;;;;;;2.80;2.35;;;;;;;;;;6281917;22;20015;-95
2022/02/12 11:47:10;;;;;;;4.45;2.17;;;;;;;;;;6253019;22;20019;-95
2022/02/12 11:49:40;;;;;;;2.85;1.83;;;;;;;;;;6280829;22;20022;-95
2022/02/12 11:52:07;;;;;;;5.05;2.30;;;;;;;;;;6253970;22;20464;-96
2022/02/12 11:55:00;;;;;;;7.18;2.50;;;;;;;;;;6251892;22;20020;-95
2022/02/12 11:57:26;;;;;;;2.70;2.15;;;;;;;;;;6279455;22;20438;-94
2022/02/12 11:59:53;;;;;;;4.00;2.38;;;;;;;;;;6251229;22;20085;-95
2022/02/12 12:02:38;;;;;;;5.07;2.27;;;;;;;;;;6279564;22;20007;-94
2022/02/12 12:05:13;;;;;;;5.75;2.30;;;;;;;;;;6280288;22;20012;-95
2022/02/12 12:08:00;;;;;;;8.15;2.83;;;12.90;49.60;;;;;;6279760;22;20007;-94
2022/02/12 12:10:28;;;;;;;3.92;1.92;;;;;;;;;;6280118;22;20004;-95
2022/02/12 12:12:59;;;;;;;6.40;1.95;;;;;;;;;;6251333;22;20065;-94
2022/02/12 12:15:26;;;;;;;3.42;1.95;;;;;;;;;;6278384;22;20091;-95
2022/02/12 12:17:55;;;;;;;3.23;2.00;;;;;;;;;;6278681;22;20004;-93
2022/02/12 12:20:22;;;;;;;4.38;2.38;;;;;;;;;;6278340;22;20015;-93
2022/02/12 12:22:48;;;;;;;3.17;2.10;;;;;;;;;;6279843;22;20008;-95
2022/02/12 12:25:14;;;;;;;3.70;2.22;;;;;;;;;;6252118;22;20043;-94
2022/02/12 12:27:40;;;;;;;3.78;2.00;;;;;;;;;;6277613;22;20008;-95
2022/02/12 12:32:55;;;;;;;5.80;3.22;;;;;;;;;;6277920;22;20026;-95
2022/02/12 12:35:22;;;;;;;5.75;2.72;;;;;;;;;;6251279;22;20022;-94
2022/02/12 12:37:52;;;;;;;2.35;1.80;;;;;;;;;;6278486;22;20004;-95
2022/02/12 12:40:25;;;;;;;2.70;1.90;;;;;;;;;;6278275;22;20019;-95
2022/02/12 12:42:58;;;;;;;4.53;3.17;;;;;;;;;;6278791;22;20490;-94
2022/02/12 12:45:24;;;;;;;4.25;2.50;;;;;;;;;;6251134;22;20012;-96
2022/02/12 12:47:51;;;;;;;4.13;2.50;;;;;;;;;;6251959;22;20050;-95
2022/02/12 12:50:17;;;;;;;3.67;2.50;;;;;;;;;;6278218;22;20004;-94
2022/02/12 12:52:43;;;;;;;5.47;2.15;;;;;;;;;;6278612;22;20011;-95
2022/02/12 12:55:09;;;;;;;6.07;2.10;;;;;;;;;;6278523;22;20004;-93
2022/02/12 12:57:40;;;;;;;3.22;2.72;;;;;;;;;;6251703;22;20004;-95
2022/02/12 13:00:07;;;;;;;5.18;2.10;;;;;;;;;;6277670;22;20074;-94
2022/02/12 13:02:38;;;;;;;8.52;2.40;;;;;;;;;;6251219;22;20004;-96
2022/02/12 13:05:04;;;;;;;4.75;1.88;;;;;;;;;;6278442;22;20015;-95
2022/02/12 13:07:32;;;;;;;3.90;2.25;;;;;;;;;;6277468;22;20061;-94
2022/02/12 13:10:00;;;;;;;4.05;2.13;;;;;;;;;;6278325;22;20008;-96
2022/02/12 13:12:34;;;;;;;3.03;2.17;;;;;;;;;;6277672;22;20012;-96
2022/02/12 13:15:05;;;;;;;4.68;2.53;;;;;;;;;;6250570;22;20014;-94
2022/02/12 13:17:31;;;;;;;6.03;2.88;;;;;;;;;;6276861;22;20015;-94
2022/02/12 13:19:58;;;;;;;4.10;2.47;;;;;;;;;;6278072;22;20075;-95
2022/02/12 13:22:26;;;;;;;3.92;2.85;;;;;;;;;;6278518;22;20011;-95
2022/02/12 13:24:53;;;;;;;4.65;2.88;;;;;;;;;;6277705;22;20015;-96
2022/02/12 13:27:23;;;;;;;4.50;2.40;;;;;;;;;;6277653;22;20006;-94
2022/02/12 13:29:50;;;;;;;3.10;1.77;;;;;;;;;;6276512;22;20008;-95
2022/02/12 13:32:16;;;;;;;2.88;2.47;;;;;;;;;;6277162;22;20016;-95
2022/02/12 13:34:49;;;;;;;4.32;2.30;;;;;;;;;;6277547;22;20426;-94
2022/02/12 13:37:15;;;;;;;5.28;2.75;;;;;;;;;;6277234;22;20004;-95
2022/02/12 13:39:52;;;;;;;6.05;2.58;;;;;;;;;;6276576;22;20079;-96
2022/02/12 13:42:21;;;;;;;2.63;2.25;;;;;;;;;;6277418;22;20000;-94
2022/02/12 13:44:57;;;;;;;4.63;2.50;;;;;;;;;;6277342;22;20114;-95
2022/02/12 13:47:23;;;;;;;8.88;3.35;;;;;;;;;;6249596;22;20000;-95
2022/02/12 13:49:49;;;;;;;6.10;3.05;;;;;;;;;;6277717;22;20006;-93
2022/02/12 13:52:18;;;;;;;3.85;2.75;;;;;;;;;;6277073;22;19999;-95
2022/02/12 13:54:44;;;;;;;5.20;2.95;;;;;;;;;;6249966;22;20024;-94
2022/02/12 13:57:11;;;;;;;4.30;2.55;;;;;;;;;;6249998;22;20095;-94
2022/02/12 13:59:37;;;;;;;4.55;3.20;;;;;;;;;;6276932;22;20008;-94
2022/02/12 14:02:03;;;;;;;3.22;2.25;;;;;;;;;;6250701;22;20011;-95
2022/02/12 14:04:30;;;;;;;5.25;3.50;;;;;;;;;;6276709;22;20011;-95
2022/02/12 14:06:56;;;;;;;;;;;11.60;56.20;;;;;;6277985;22;20003;-96
2022/02/12 14:09:22;;;;;;;4.10;2.65;;;;;;;;;;6250995;22;19941;-96
2022/02/12 14:11:49;;;;;;;6.65;2.53;;;;;;;;;;6277034;22;20075;-94
2022/02/12 14:14:15;;;;;;;7.90;3.13;;;;;;;;;;6276763;22;20006;-95
2022/02/12 14:16:42;;;;;;;10.60;3.45;;;;;;;;;;6276951;22;20423;-94
2022/02/12 14:19:09;;;;;;;8.20;3.85;;;;;;;;;;6276694;22;20454;-94
2022/02/12 14:21:36;;;;;;;3.83;2.53;;;;;;;;;;6277181;22;20008;-93
2022/02/12 14:24:02;;;;;;;6.72;2.78;;;;;;;;;;6277180;22;20038;-94
2022/02/12 14:26:29;;;;;;;9.95;3.92;;;;;;;;;;6276514;22;20053;-94
2022/02/12 14:28:55;;;;;;;6.70;3.30;;;;;;;;;;6277027;22;20422;-95
2022/02/12 14:31:21;;;;;;;3.35;2.85;;;;;;;;;;6276997;22;20004;-94
2022/02/12 14:33:47;;;;;;;4.43;2.70;;;;;;;;;;6276317;22;20006;-94
2022/02/12 14:36:13;;;;;;;6.15;2.75;;;;;;;;;;6277423;22;20008;-95
2022/02/12 14:38:40;;;;;;;6.20;3.30;;;;;;;;;;6249636;22;19999;-94
2022/02/12 14:41:06;;;;;;;4.60;2.80;;;;;;;;;;6276612;22;20064;-95
2022/02/12 14:43:33;;;;;;;5.07;3.20;;;;;;;;;;6276655;22;20430;-94
2022/02/12 14:45:59;;;;;;;4.80;2.83;;;;;;;;;;6276455;22;20452;-95
2022/02/12 14:48:25;;;;;;;4.18;2.88;;;;;;;;;;6251230;22;20012;-94
2022/02/12 14:50:52;;;;;;;6.28;3.50;;;;;;;;;;6277792;22;20008;-95
2022/02/12 14:53:18;;;;;;;3.97;2.90;;;;;;;;;;6277117;22;20458;-95
2022/02/12 14:55:45;;;;;;;9.02;3.50;;;;;;;;;;6277766;22;20440;-95
2022/02/12 14:58:11;;;;;;;5.90;2.88;;;;;;;;;;6250084;22;20095;-95
2022/02/12 15:00:37;;;;;;;7.18;3.60;;;;;;;;;;6250042;22;20004;-94
2022/02/12 15:03:04;;;;;;;3.75;2.53;;;;;;;;;;6250385;22;20011;-96
2022/02/12 15:05:30;;;;;;;5.03;3.50;;;;;;;;;;6277379;22;20035;-95
2022/02/12 15:07:56;;;;;;;3.80;2.67;;;;;;;;;;6250219;22;20450;-94
2022/02/12 15:10:22;;;;;;;6.88;3.60;;;;;;;;;;6276667;22;20004;-95
2022/02/12 15:12:48;;;;;;;5.25;3.50;;;;;;;;;;6277831;22;20511;-95
2022/02/12 15:15:14;;;;;;;4.13;2.80;;;;;;;;;;6276924;22;20011;-95
2022/02/12 15:17:40;;;;;;;5.05;3.05;;;;;;;;;;6250939;22;20000;-95
2022/02/12 15:20:08;;;;;;;5.47;3.13;;;;;;;;;;6276681;22;20008;-94
2022/02/12 15:22:34;;;;;;;10.93;3.30;;;;;;;;;;6277291;22;20000;-95
2022/02/12 15:25:00;;;;;;;5.90;2.53;;;;;;;;;;6277128;22;20018;-94
2022/02/12 15:27:26;;;;;;;5.10;2.65;;;;;;;;;;6277116;22;20000;-94
2022/02/12 15:29:52;;;;;;;7.38;3.60;;;;;;;;;;6250709;22;20042;-94
2022/02/12 15:32:18;;;;;;;8.18;3.78;;;;;;;;;;6277089;22;19996;-94
2022/02/12 15:34:46;;;;;;;8.25;4.15;;;;;;;;;;6277417;22;19999;-94
2022/02/12 15:37:12;;;;;;;;;;;10.70;59.90;;;;;;6277472;22;20029;-94
2022/02/12 15:39:38;;;;;;;5.72;2.70;;;;;;;;;;6276579;22;19930;-96
2022/02/12 15:42:05;;;;;;;6.38;2.63;;;;;;;;;;6250371;22;20430;-95
2022/02/12 15:44:31;;;;;;;6.57;2.33;;;;;;;;;;6277440;22;20016;-95
2022/02/12 15:46:57;;;;;;;5.70;3.42;;;;;;;;;;6276209;22;20007;-95
2022/02/12 15:49:24;;;;;;;4.97;3.53;;;;;;;;;;6276697;22;20000;-94
2022/02/12 15:51:50;;;;;;;4.95;3.40;;;;;;;;;;6277823;22;20000;-94
2022/02/12 15:54:17;;;;;;;8.73;3.92;;;;;;;;;;6278387;22;20024;-94
2022/02/12 15:56:43;;;;;;;11.73;4.05;;;;;;;;;;6251597;22;20011;-94
2022/02/12 15:59:09;;;;;;;7.35;3.72;;;;;;;;;;6251139;22;20026;-95
2022/02/12 16:01:38;;;;;;;5.93;3.53;;;;;;;;;;6277935;22;20466;-95
2022/02/12 16:04:04;;;;;;;4.05;3.42;;;;;;;;;;6278466;22;20012;-94
2022/02/12 16:06:30;;;;;;;4.15;3.30;;;;;;;;;;6278038;22;20381;-95
2022/02/12 16:08:56;;;;;;;10.15;4.30;;;;;;;;;;6250658;22;20004;-94
2022/02/12 16:11:22;;;;;;;4.30;3.58;;;;;;;;;;6278379;22;20015;-94
2022/02/12 16:13:48;;;;;;;5.50;3.38;;;;;;;;;;6278486;22;19996;-95
2022/02/12 16:16:14;;;;;;;5.53;3.10;;;;;;;;;;6277949;22;20492;-95
2022/02/12 16:18:40;;;;;;;8.00;3.85;;;;;;;;;;6278358;22;20075;-96
2022/02/12 16:21:06;;;;;;;6.82;3.25;;;;;;;;;;6251984;22;20007;-95
2022/02/12 16:23:32;;;;;;;12.20;4.55;;;;;;;;;;6278264;22;20046;-95
2022/02/12 16:25:58;;;;;;;10.95;4.90;;;;;;;;;;6251217;22;20010;-95
2022/02/12 16:28:24;;;;;;;10.43;6.20;;;;;;;;;;6278399;22;19996;-96
2022/02/12 16:30:51;;;;;;;7.95;4.55;;;;;;;;;;6278575;22;20003;-95
2022/02/12 16:33:18;;;;;;;10.85;5.03;;;;;;;;;;6250997;22;20008;-95
2022/02/12 16:35:48;;;;;;;6.00;4.17;;;;;;;;;;6251626;22;20004;-96
2022/02/12 16:38:14;;;;;;;7.13;3.78;;;;;;;;;;6277831;22;20074;-95
2022/02/12 16:40:40;;;;;;;8.98;3.58;;;;;;;;;;6277882;22;20012;-94
2022/02/12 16:43:07;;;;;;;7.40;3.35;;;;;;;;;;6250547;22;20003;-95
2022/02/12 16:45:33;;;;;;;7.30;4.53;;;;;;;;;;6250667;22;20015;-95
2022/02/12 16:47:59;;;;;;;7.88;4.82;;;;;;;;;;6277572;22;20011;-95
2022/02/12 16:50:25;;;;;;;7.55;3.53;;;;;;;;;;6278731;22;20007;-95
2022/02/12 16:52:51;;;;;;;12.27;4.38;;;;;;;;;;6250075;22;20000;-93
2022/02/12 16:55:17;;;;;;;10.68;3.45;;;;;;;;;;6277466;22;20015;-95
2022/02/12 16:57:44;;;;;;;5.50;3.80;;;;;;;;;;6251146;22;20026;-95
2022/02/12 17:00:10;;;;;;;5.68;3.25;;;;;;;;;;6250731;22;20315;-94
2022/02/12 17:02:37;;;;;;;7.63;3.70;;;;;;;;;;6278855;22;20027;-94
2022/02/12 17:05:03;;;;;;;5.90;3.45;;;;;;;;;;6250678;22;20071;-94
2022/02/12 17:07:29;;;;;;;8.68;4.25;;;;;;;;;;6278183;22;20049;-95
2022/02/12 17:09:56;;;;;;;8.75;5.47;;;;;;;;;;6278411;22;20053;-96